Excelsior, MN (55331)

6:25 PM CDT on May 03, 2015 (GMT -0500)
Carman Bay | | Change Station
CLOSE
Current Station
Personal Weather Station
Location: Navarre, MN
Elevation: 935 ft
Nearby Weather Stations

Elev 935 ft 44.93 °N, 93.61 °W | Updated 39 seconds ago

Overcast
Overcast
68.5 °F
Feels Like 68.5 °F
N
2.0
Wind Variable Wind from North
Gusts 2.0 mph

Today
High -- | Low -- °F
--% Chance of Precip.
Yesterday
High -- | Low -- °F
Precip. -- in
6:01 AM 8:22 PM
Full, 100% visible
Pressure 29.81 in
Visibility 10.0 miles
Clouds Few 4700 ft
Scattered Clouds 5500 ft
Overcast 7000 ft
Dew Point 52 °F
Humidity 55%
Rainfall 0.00 in
Snow Depth Not available.
UV 1 out of 12
Pollen 9.40 out of 12
Air Quality Not available.
Flu Activity Sporadic
SPECI KFCM 032313Z 02011G23KT 10SM -RA FEW047 SCT055 OVC070 19/09 A2981 RMK AO2 LTG DSNT NE RAB05 P0000 T01940094

More Conditions Fewer Conditions

Pressure 29.81 in
Visibility 10.0 miles
Clouds Few 4700 ft
Scattered Clouds 5500 ft
Overcast 7000 ft
Dew Point 52 °F
Humidity 55%
Rainfall 0.00 in
Snow Depth Not available.
UV 1 out of 12
Pollen 9.40 out of 12
Air Quality Not available.
Flu Activity Sporadic
SPECI KFCM 032313Z 02011G23KT 10SM -RA FEW047 SCT055 OVC070 19/09 A2981 RMK AO2 LTG DSNT NE RAB05 P0000 T01940094

More Conditions Fewer Conditions

Nepal has a long way to go to dig out and rebuild from a devastating earthquake. We have teamed up with several charities and organizations to make contributing to the relief effort as easy as possible.
How you can help: Portlight Strategies | Red Cross

10-Day Weather Forecast

Almanac

Astronomy

May. 03, 2015 Rise Set
Actual Time
Civil Twilight
Nautical Twilight
Astronomical Twilight
Moon
Length of Visible Light
Length of Day
Tomorrow will be .
, % of the Moon is Illuminated

Today's Extremes

State Highs State Lows

Community

WunderPhotos

Upload Photos

1,818,416 photos uploaded!

WunderBlogs® & News

Nearby

Air Quality

  Air Quality AQ Index Pollutant
Not available.

Snow Depth

Station Depth Elevation

Earthquake Activity

City Distance Mag. Time & Date
Minimum magnitude displayed is 2.5.

Coastal Water Temperatures

Place Temperature

Stations

Nearby Weather Stations

Station Location Temp. Windchill Dew Point Humidity Wind Precip. Elev Updated Type